Time;durP1;ratioP1;P1;durP2;ratioP2;P2;SDS_P1;SDS_P2;PMS_P1;PMS_P2;Temp;Humidity;BMP_temperature;BMP_pressure;BME280_temperature;BME280_humidity;BME280_pressure;Samples;Min_cycle;Max_cycle;Signal;HPM_P1;HPM_P2
2021/10/27 00:02:20;;;;;;;;;;;;;;;;;;5093761;28;19956;-84
2021/10/27 00:04:45;;;;;;;;;;;;;;;;;;5093569;28;19920;-87
2021/10/27 00:07:11;;;;;;;;;;;;;;;;;;5097370;28;19916;-81
2021/10/27 00:09:37;;;;;;;;;;;;;;;;;;5108227;28;19962;-83
2021/10/27 00:12:03;;;;;;;;;;;;;;;;;;5104376;28;20006;-83
2021/10/27 00:14:28;;;;;;;;;;;;;;;;;;5104659;28;20042;-83
2021/10/27 00:16:54;;;;;;;;;;;;;;;;;;5093384;28;20412;-79
2021/10/27 00:19:20;;;;;;;;;;;;;;;;;;5093720;28;20391;-87
2021/10/27 00:21:46;;;;;;;;;;;;;;;;;;5093539;28;19927;-82
2021/10/27 00:24:11;;;;;;;;;;;;;;;;;;5093634;28;19916;-83
2021/10/27 00:26:37;;;;;;;;;;;;;;;;;;5091843;28;19976;-84
2021/10/27 00:29:02;;;;;;;;;;;;;;;;;;5094151;28;19916;-87
2021/10/27 00:31:28;;;;;;;;;;;;;;;;;;5097079;28;19923;-86
2021/10/27 00:33:53;;;;;;;;;;;;;;;;;;5095725;28;19990;-84
2021/10/27 00:36:19;;;;;;;;;;;;;;;;;;5097071;28;19920;-86
2021/10/27 00:38:45;;;;;;;;;;;;;;;;;;5096860;28;20372;-84
2021/10/27 00:41:10;;;;;;;;;;;;;;;;;;5096778;28;20330;-83
2021/10/27 00:43:37;;;;;;;;;;;;;;;;;;5096954;28;20388;-84
2021/10/27 00:46:02;;;;;;;;;;;;;;;;;;5096643;28;19923;-80
2021/10/27 00:48:28;;;;;;;;;;;;;;;;;;5096662;28;20359;-80
2021/10/27 00:50:53;;;;;;;;;;;;;;;;;;5096526;28;19916;-82
2021/10/27 00:53:19;;;;;;;;;;;;;;;;;;5095419;28;19916;-87
2021/10/27 00:55:45;;;;;;;;;;;;;;;;;;5096671;28;20014;-83
2021/10/27 00:58:11;;;;;;;;;;;;;;;;;;5096464;28;19959;-86
2021/10/27 01:00:36;;;;;;;;;;;;;;;;;;5096513;28;19964;-88
2021/10/27 01:03:02;;;;;;;;;;;;;;;;;;5096452;28;20391;-86
2021/10/27 01:05:28;;;;;;;;;;;;;;;;;;5096162;28;20011;-85
2021/10/27 01:07:53;;;;;;;;;;;;;;;;;;5096346;28;19916;-86
2021/10/27 01:10:19;;;;;;;;;;;;;;;;;;5096146;28;19916;-87
2021/10/27 01:12:46;;;;;;;;;;;;;;;;;;5096102;28;19924;-84
2021/10/27 01:15:11;;;;;;;;;;;;;;;;;;5096172;28;19916;-83
2021/10/27 01:17:37;;;;;;;;;;;;;;;;;;5096146;28;19939;-84
2021/10/27 01:20:03;;;;;;;;;;;;;;;;;;5096063;28;19920;-82
2021/10/27 01:22:30;;;;;;;;;;;;;;;;;;5096219;28;19923;-84
2021/10/27 01:24:56;;;;;;;;;;;;;;;;;;5096052;28;19916;-88
2021/10/27 01:27:23;;;;;;;;;;;;;;;;;;5096055;28;19916;-88
2021/10/27 01:29:48;;;;;;;;;;;;;;;;;;5095996;28;19989;-83
2021/10/27 01:32:37;;;;;;;;;;;;;;;;;;5096095;28;20360;-83
2021/10/27 01:35:03;;;;;;;;;;;;;;;;;;5095874;28;19923;-85
2021/10/27 01:37:29;;;;;;;;;;;;;;;;;;5095670;28;19927;-82
2021/10/27 01:39:54;;;;;;;;;;;;;;;;;;5095676;28;19916;-87
2021/10/27 01:42:20;;;;;;;;;;;;;;;;;;5095670;28;20443;-86
2021/10/27 01:44:46;;;;;;;;;;;;;;;;;;5094376;28;20061;-84
2021/10/27 01:47:11;;;;;;;;;;;;;;;;;;5095441;28;20060;-87
2021/10/27 01:49:37;;;;;;;;;;;;;;;;;;5095461;28;20380;-80
2021/10/27 01:52:03;;;;;;;;;;;;;;;;;;5095447;28;19951;-82
2021/10/27 01:54:28;;;;;;;;;;;;;;;;;;5095394;28;19916;-85
2021/10/27 01:56:54;;;;;;;;;;;;;;;;;;5095436;28;19923;-86
2021/10/27 01:59:21;;;;;;;;;;;;;;;;;;5095128;28;20447;-86
2021/10/27 02:01:47;;;;;;;;;;;;;;;;;;5095197;28;19920;-83
2021/10/27 02:04:14;;;;;;;;;;;;;;;;;;5095310;28;19912;-83
2021/10/27 02:06:39;;;;;;;;;;;;;;;;;;5095329;28;19963;-85
2021/10/27 02:09:04;;;;;;;;;;;;;;;;;;5095383;28;19920;-84
2021/10/27 02:11:30;;;;;;;;;;;;;;;;;;5095105;28;19920;-84
2021/10/27 02:13:55;;;;;;;;;;;;;;;;;;5095130;28;19927;-84
2021/10/27 02:16:23;;;;;;;;;;;;;;;;;;5095034;28;19967;-80
2021/10/27 02:18:48;;;;;;;;;;;;;;;;;;5094879;28;19970;-79
2021/10/27 02:21:14;;;;;;;;;;;;;;;;;;5094890;28;19920;-86
2021/10/27 02:23:39;;;;;;;;;;;;;;;;;;5095015;28;19939;-85
2021/10/27 02:26:05;;;;;;;;;;;;;;;;;;5094756;28;19965;-81
2021/10/27 02:28:31;;;;;;;;;;;;;;;;;;5094884;28;20288;-88
2021/10/27 02:30:57;;;;;;;;;;;;;;;;;;5094682;28;19962;-84
2021/10/27 02:33:22;;;;;;;;;;;;;;;;;;5094605;28;19920;-79
2021/10/27 02:35:48;;;;;;;;;;;;;;;;;;5094657;28;19926;-81
2021/10/27 02:38:13;;;;;;;;;;;;;;;;;;5094544;28;20426;-80
2021/10/27 02:40:39;;;;;;;;;;;;;;;;;;5094508;28;19923;-80
2021/10/27 02:43:04;;;;;;;;;;;;;;;;;;5094431;28;19916;-79
2021/10/27 02:45:30;;;;;;;;;;;;;;;;;;5094440;28;20014;-79
2021/10/27 02:47:55;;;;;;;;;;;;;;;;;;5094408;28;19920;-81
2021/10/27 02:50:21;;;;;;;;;;;;;;;;;;5092847;28;20371;-80
2021/10/27 02:52:48;;;;;;;;;;;;;;;;;;5093885;28;19919;-80
2021/10/27 02:55:14;;;;;;;;;;;;;;;;;;5094225;28;19920;-80
2021/10/27 02:57:40;;;;;;;;;;;;;;;;;;5094199;28;20010;-80
2021/10/27 03:00:06;;;;;;;;;;;;;;;;;;5094119;28;20007;-80
2021/10/27 03:02:31;;;;;;;;;;;;;;;;;;5094052;28;19982;-80
2021/10/27 03:04:57;;;;;;;;;;;;;;;;;;5094054;28;20387;-80
2021/10/27 03:07:22;;;;;;;;;;;;;;;;;;5094032;28;20270;-81
2021/10/27 03:09:48;;;;;;;;;;;;;;;;;;5093901;28;20376;-79
2021/10/27 03:12:14;;;;;;;;;;;;;;;;;;5093671;28;19920;-86
2021/10/27 03:14:40;;;;;;;;;;;;;;;;;;5093833;28;19959;-79
2021/10/27 03:17:06;;;;;;;;;;;;;;;;;;5093954;28;20011;-80
2021/10/27 03:19:31;;;;;;;;;;;;;;;;;;5093885;28;19947;-82
2021/10/27 03:21:57;;;;;;;;;;;;;;;;;;5094643;28;19916;-80
2021/10/27 03:24:22;;;;;;;;;;;;;;;;;;5093759;28;19916;-83
2021/10/27 03:26:48;;;;;;;;;;;;;;;;;;5093519;28;19916;-84
2021/10/27 03:29:13;;;;;;;;;;;;;;;;;;5092564;28;19916;-81
2021/10/27 03:31:38;;;;;;;;;;;;;;;;;;5093554;28;19973;-84
2021/10/27 03:34:04;;;;;;;;;;;;;;;;;;5092278;28;19969;-83
2021/10/27 03:36:29;;;;;;;;;;;;;;;;;;5093527;28;19923;-82
2021/10/27 03:38:55;;;;;;;;;;;;;;;;;;5093706;28;20287;-86
2021/10/27 03:41:21;;;;;;;;;;;;;;;;;;5094321;28;19916;-81
2021/10/27 03:43:46;;;;;;;;;;;;;;;;;;5094046;28;19962;-80
2021/10/27 03:46:12;;;;;;;;;;;;;;;;;;5093367;28;19916;-82
2021/10/27 03:48:38;;;;;;;;;;;;;;;;;;5092317;28;19920;-80
2021/10/27 03:51:03;;;;;;;;;;;;;;;;;;5094112;28;19937;-78
2021/10/27 03:53:29;;;;;;;;;;;;;;;;;;5094349;28;19916;-79
2021/10/27 03:55:57;;;;;;;;;;;;;;;;;;5093585;28;19939;-80
2021/10/27 03:58:22;;;;;;;;;;;;;;;;;;5094008;28;20464;-81
2021/10/27 04:00:48;;;;;;;;;;;;;;;;;;5093322;28;20011;-83
2021/10/27 04:03:19;;;;;;;;;;;;;;;;;;5093267;28;19916;-85
2021/10/27 04:05:45;;;;;;;;;;;;;;;;;;5097271;28;20360;-80
2021/10/27 04:08:11;;;;;;;;;;;;;;;;;;5097347;28;20011;-84
2021/10/27 04:10:36;;;;;;;;;;;;;;;;;;5097345;28;19959;-85
2021/10/27 04:13:02;;;;;;;;;;;;;;;;;;5097426;28;19920;-79
2021/10/27 04:15:27;;;;;;;;;;;;;;;;;;5097154;28;19957;-84
2021/10/27 04:17:53;;;;;;;;;;;;;;;;;;5095751;28;19916;-79
2021/10/27 04:20:18;;;;;;;;;;;;;;;;;;5097070;28;19920;-80
2021/10/27 04:22:44;;;;;;;;;;;;;;;;;;5096984;28;19918;-84
2021/10/27 04:25:10;;;;;;;;;;;;;;;;;;5097126;28;20292;-80
2021/10/27 04:27:36;;;;;;;;;;;;;;;;;;5096875;28;19924;-79
2021/10/27 04:30:02;;;;;;;;;;;;;;;;;;5095605;28;19923;-79
2021/10/27 04:32:28;;;;;;;;;;;;;;;;;;5096889;28;19916;-79
2021/10/27 04:34:53;;;;;;;;;;;;;;;;;;5099406;28;19916;-80
2021/10/27 04:37:19;;;;;;;;;;;;;;;;;;5096872;28;19916;-80
2021/10/27 04:39:45;;;;;;;;;;;;;;;;;;5098759;28;19956;-79
2021/10/27 04:42:10;;;;;;;;;;;;;;;;;;5099311;28;19916;-82
2021/10/27 04:44:35;;;;;;;;;;;;;;;;;;5096954;28;19945;-80
2021/10/27 04:47:04;;;;;;;;;;;;;;;;;;5099171;28;19923;-80
2021/10/27 04:49:30;;;;;;;;;;;;;;;;;;5099215;28;19917;-79
2021/10/27 04:51:56;;;;;;;;;;;;;;;;;;5098869;28;20459;-79
2021/10/27 04:54:21;;;;;;;;;;;;;;;;;;5106377;28;19923;-80
2021/10/27 04:56:55;;;;;;;;;;;;;;;;;;5102558;28;19982;-81
2021/10/27 04:59:21;;;;;;;;;;;;;;;;;;5104101;28;19923;-81
2021/10/27 05:01:46;;;;;;;;;;;;;;;;;;5095166;28;19920;-81
2021/10/27 05:04:12;;;;;;;;;;;;;;;;;;5093657;28;19927;-82
2021/10/27 05:06:38;;;;;;;;;;;;;;;;;;5085671;28;19994;-88
2021/10/27 05:09:03;;;;;;;;;;;;;;;;;;5085429;28;19932;-81
2021/10/27 05:11:29;;;;;;;;;;;;;;;;;;5087680;28;19981;-81
2021/10/27 05:13:55;;;;;;;;;;;;;;;;;;5075096;28;19916;-86
2021/10/27 05:16:21;;;;;;;;;;;;;;;;;;5074456;28;19913;-80
2021/10/27 05:18:46;;;;;;;;;;;;;;;;;;5074690;28;20434;-79
2021/10/27 05:21:11;;;;;;;;;;;;;;;;;;5073319;28;20462;-78
2021/10/27 05:23:37;;;;;;;;;;;;;;;;;;5074453;28;19913;-79
2021/10/27 05:26:03;;;;;;;;;;;;;;;;;;5074716;28;20054;-81
2021/10/27 05:28:28;;;;;;;;;;;;;;;;;;5074495;28;19960;-81
2021/10/27 05:30:54;;;;;;;;;;;;;;;;;;5074436;28;20017;-81
2021/10/27 05:33:19;;;;;;;;;;;;;;;;;;5074479;28;20017;-79
2021/10/27 05:35:45;;;;;;;;;;;;;;;;;;5074372;28;20776;-82
2021/10/27 05:38:10;;;;;;;;;;;;;;;;;;5072889;28;19920;-82
2021/10/27 05:40:36;;;;;;;;;;;;;;;;;;5076511;28;20029;-82
2021/10/27 05:43:13;;;;;;;;;;;;;;;;;;5094399;28;19920;-82
2021/10/27 05:45:39;;;;;;;;;;;;;;;;;;5093576;28;19973;-80
2021/10/27 05:48:06;;;;;;;;;;;;;;;;;;5094357;28;19920;-82
2021/10/27 05:50:39;;;;;;;;;;;;;;;;;;5093024;28;19920;-80
2021/10/27 05:55:48;;;;;;;;;;;;;;;;;;5094345;28;19984;-77
2021/10/27 05:58:14;;;;;;;;;;;;;;;;;;5094368;28;20383;-76
2021/10/27 06:00:41;;;;;;;;;;;;;;;;;;5094870;28;19969;-77
2021/10/27 06:03:07;;;;;;;;;;;;;;;;;;5095269;28;19965;-77
2021/10/27 06:05:32;;;;;;;;;;;;;;;;;;5095072;28;19920;-79
2021/10/27 06:07:58;;;;;;;;;;;;;;;;;;5095299;28;19927;-79
2021/10/27 06:10:25;;;;;;;;;;;;;;;;;;5020954;28;2136115;-78
2021/10/27 06:12:52;;;;;;;;;;;;;;;;;;5094735;28;19942;-79
2021/10/27 06:15:19;;;;;;;;;;;;;;;;;;5094946;28;19931;-79
2021/10/27 06:17:45;;;;;;;;;;;;;;;;;;5095695;28;19916;-79
2021/10/27 06:20:11;;;;;;;;;;;;;;;;;;5091747;28;19976;-81
2021/10/27 06:22:37;;;;;;;;;;;;;;;;;;5087878;28;19924;-81
2021/10/27 06:25:04;;;;;;;;;;;;;;;;;;5077931;28;19927;-78
2021/10/27 06:27:29;;;;;;;;;;;;;;;;;;5073455;28;19920;-80
2021/10/27 06:31:02;;;;;;;;;;;;;;;;;;5075646;28;19920;-81
2021/10/27 06:33:18;;;;;;;;;;;;;;;;;;5089360;28;19959;-78
2021/10/27 06:35:45;;;;;;;;;;;;;;;;;;5094555;28;20293;-78
2021/10/27 06:48:39;;;;;;;;;;;;;;;;;;5093605;28;19916;-83
2021/10/27 06:51:04;;;;;;;;;;;;;;;;;;5094326;28;19919;-82
2021/10/27 06:53:30;;;;;;;;;;;;;;;;;;5087622;28;19923;-83
2021/10/27 06:55:56;;;;;;;;;;;;;;;;;;5074231;28;19920;-81
2021/10/27 06:58:22;;;;;;;;;;;;;;;;;;5073699;28;19969;-81
2021/10/27 07:00:51;;;;;;;;;;;;;;;;;;5088035;28;19923;-82
2021/10/27 07:16:43;;;;;;;;;;;;;;;;;;5073850;28;19923;-82
2021/10/27 07:19:09;;;;;;;;;;;;;;;;;;5073716;28;19917;-82
2021/10/27 07:21:34;;;;;;;;;;;;;;;;;;5073406;28;19923;-77
2021/10/27 07:24:01;;;;;;;;;;;;;;;;;;5073325;28;20284;-82
2021/10/27 07:26:28;;;;;;;;;;;;;;;;;;5073179;28;19924;-79
2021/10/27 07:28:54;;;;;;;;;;;;;;;;;;5083864;28;19924;-79
2021/10/27 07:31:20;;;;;;;;;;;;;;;;;;5093033;28;19924;-78
2021/10/27 07:34:10;;;;;;;;;;;;;;;;;;5093108;28;19920;-78
2021/10/27 07:39:53;;;;;;;;;;;;;;;;;;5092279;28;19924;-77
2021/10/27 07:42:10;;;;;;;;;;;;;;;;;;5093678;28;19970;-82
2021/10/27 07:44:35;;;;;;;;;;;;;;;;;;5091387;28;20330;-81
2021/10/27 07:47:01;;;;;;;;;;;;;;;;;;5093088;28;20367;-82
2021/10/27 07:49:26;;;;;;;;;;;;;;;;;;5092837;28;19927;-82
2021/10/27 07:51:52;;;;;;;;;;;;;;;;;;5092803;28;19919;-86
2021/10/27 07:54:17;;;;;;;;;;;;;;;;;;5086883;28;19920;-85
2021/10/27 07:56:44;;;;;;;;;;;;;;;;;;5093072;28;19916;-84
2021/10/27 07:59:11;;;;;;;;;;;;;;;;;;5085911;28;19920;-85
2021/10/27 08:01:36;;;;;;;;;;;;;;;;;;5088762;28;20308;-81
2021/10/27 08:04:02;;;;;;;;;;;;;;;;;;5092682;28;19917;-81
2021/10/27 08:06:27;;;;;;;;;;;;;;;;;;5078089;28;19928;-83
2021/10/27 08:08:54;;;;;;;;;;;;;;;;;;5075976;28;19928;-83
2021/10/27 08:11:20;;;;;;;;;;;;;;;;;;5079173;28;19943;-81
2021/10/27 08:13:45;;;;;;;;;;;;;;;;;;5089273;28;20360;-79
2021/10/27 08:16:11;;;;;;;;;;;;;;;;;;5089702;28;19928;-78
2021/10/27 08:18:36;;;;;;;;;;;;;;;;;;5080750;28;19960;-82
2021/10/27 08:21:02;;;;;;;;;;;;;;;;;;5082605;28;19931;-79
2021/10/27 08:23:31;;;;;;;;;;;;;;;;;;5086373;28;19973;-80
2021/10/27 08:25:58;;;;;;;;;;;;;;;;;;5079962;28;20435;-81
2021/10/27 08:28:34;;;;;;;;;;;;;;;;;;5082456;28;20364;-81
2021/10/27 08:34:02;;;;;;;;;;;;;;;;;;5077419;28;19950;-79
2021/10/27 08:36:27;;;;;;;;;;;;;;;;;;5080240;28;20300;-79
2021/10/27 08:38:56;;;;;;;;;;;;;;;;;;5084203;28;19924;-79
2021/10/27 08:41:22;;;;;;;;;;;;;;;;;;5071553;28;19920;-79
2021/10/27 08:43:47;;;;;;;;;;;;;;;;;;5075229;28;19925;-82
2021/10/27 08:46:14;;;;;;;;;;;;;;;;;;5084385;28;19994;-83
2021/10/27 08:48:43;;;;;;;;;;;;;;;;;;5078704;28;19960;-80
2021/10/27 08:51:11;;;;;;;;;;;;;;;;;;5075041;28;20007;-80
2021/10/27 08:53:37;;;;;;;;;;;;;;;;;;5091674;28;20011;-81
2021/10/27 08:56:04;;;;;;;;;;;;;;;;;;5085416;28;19923;-81
2021/10/27 08:58:36;;;;;;;;;;;;;;;;;;5094329;28;19920;-87
2021/10/27 09:01:08;;;;;;;;;;;;;;;;;;5093665;28;19924;-83
2021/10/27 09:06:16;;;;;;;;;;;;;;;;;;5095564;28;20011;-81
2021/10/27 09:09:10;;;;;;;;;;;;;;;;;;5096674;28;19916;-81
2021/10/27 09:34:02;;;;;;;;;;;;;;;;;;5096254;28;19927;-83
2021/10/27 09:36:48;;;;;;;;;;;;;;;;;;5094982;28;20007;-86
2021/10/27 10:06:16;;;;;;;;;;;;;;;;;;5093228;28;19990;-82
2021/10/27 10:08:43;;;;;;;;;;;;;;;;;;5095446;28;19920;-83
2021/10/27 10:11:10;;;;;;;;;;;;;;;;;;5094840;28;20404;-83
2021/10/27 10:13:36;;;;;;;;;;;;;;;;;;5093812;28;19966;-80
2021/10/27 10:16:02;;;;;;;;;;;;;;;;;;5094688;28;19923;-80
2021/10/27 10:18:27;;;;;;;;;;;;;;;;;;5094915;28;19944;-83
2021/10/27 10:20:54;;;;;;;;;;;;;;;;;;5094782;28;20403;-80
2021/10/27 10:23:23;;;;;;;;;;;;;;;;;;5094823;28;20441;-79
2021/10/27 10:25:53;;;;;;;;;;;;;;;;;;5093986;28;19920;-82
2021/10/27 10:28:20;;;;;;;;;;;;;;;;;;5093584;28;20006;-81
2021/10/27 10:30:55;;;;;;;;;;;;;;;;;;5094682;28;20002;-81
2021/10/27 10:33:22;;;;;;;;;;;;;;;;;;5093334;28;19927;-82
2021/10/27 10:36:10;;;;;;;;;;;;;;;;;;5094546;28;20005;-79
2021/10/27 10:38:44;;;;;;;;;;;;;;;;;;5085390;28;19921;-80
2021/10/27 10:41:28;;;;;;;;;;;;;;;;;;5079630;28;19920;-79
2021/10/27 10:44:07;;;;;;;;;;;;;;;;;;5094541;28;20276;-81
2021/10/27 11:26:14;;;;;;;;;;;;;;;;;;5031259;28;19917;-80
2021/10/27 11:37:27;;;;;;;;;;;;;;;;;;5090433;28;19927;-81
2021/10/27 11:39:55;;;;;;;;;;;;;;;;;;5078808;28;19916;-80
2021/10/27 11:47:36;;;;;;;;;;;;;;;;;;5092730;28;19920;-80
2021/10/27 11:50:02;;;;;;;;;;;;;;;;;;5075344;28;19927;-82
2021/10/27 11:52:32;;;;;;;;;;;;;;;;;;5079188;28;20006;-80
2021/10/27 11:54:59;;;;;;;;;;;;;;;;;;5083278;28;20019;-80
2021/10/27 11:57:28;;;;;;;;;;;;;;;;;;5082054;28;19928;-80
2021/10/27 11:59:54;;;;;;;;;;;;;;;;;;5084747;28;20359;-81
2021/10/27 12:02:20;;;;;;;;;;;;;;;;;;5085241;28;19951;-82
2021/10/27 12:04:45;;;;;;;;;;;;;;;;;;5087892;28;19920;-80
2021/10/27 12:07:31;;;;;;;;;;;;;;;;;;5082284;28;19946;-82
2021/10/27 12:10:09;;;;;;;;;;;;;;;;;;5080850;28;20407;-82
2021/10/27 12:18:00;;;;;;;;;;;;;;;;;;5078916;28;20006;-82
2021/10/27 12:20:44;;;;;;;;;;;;;;;;;;5077937;28;20019;-81
2021/10/27 12:23:20;;;;;;;;;;;;;;;;;;5078542;28;19924;-81
2021/10/27 12:25:46;;;;;;;;;;;;;;;;;;5074843;28;20006;-83
2021/10/27 12:28:25;;;;;;;;;;;;;;;;;;5076679;28;20437;-81
2021/10/27 12:30:51;;;;;;;;;;;;;;;;;;5076648;28;20361;-82
2021/10/27 12:33:16;;;;;;;;;;;;;;;;;;5076635;28;19943;-82
2021/10/27 12:35:42;;;;;;;;;;;;;;;;;;5076480;28;19964;-82
2021/10/27 12:38:16;;;;;;;;;;;;;;;;;;5076420;28;19952;-81
2021/10/27 12:40:43;;;;;;;;;;;;;;;;;;5076463;28;19969;-81
2021/10/27 12:43:13;;;;;;;;;;;;;;;;;;5075336;28;19928;-82
2021/10/27 12:45:39;;;;;;;;;;;;;;;;;;5076215;28;20015;-81
2021/10/27 12:48:06;;;;;;;;;;;;;;;;;;5076294;28;19916;-82
2021/10/27 12:50:32;;;;;;;;;;;;;;;;;;5076259;28;19923;-81
2021/10/27 12:53:02;;;;;;;;;;;;;;;;;;5074955;28;19985;-82
2021/10/27 12:55:29;;;;;;;;;;;;;;;;;;5076166;28;19917;-81
2021/10/27 12:58:05;;;;;;;;;;;;;;;;;;5076419;28;19920;-81
2021/10/27 13:00:45;;;;;;;;;;;;;;;;;;5075979;28;19920;-82
2021/10/27 13:06:12;;;;;;;;;;;;;;;;;;5076038;28;19920;-81
2021/10/27 13:11:19;;;;;;;;;;;;;;;;;;5075716;28;19920;-82
2021/10/27 13:29:53;;;;;;;;;;;;;;;;;;5075832;28;20007;-82
2021/10/27 13:32:22;;;;;;;;;;;;;;;;;;5075613;28;19920;-80
2021/10/27 13:34:48;;;;;;;;;;;;;;;;;;5075628;28;19999;-81
2021/10/27 13:37:14;;;;;;;;;;;;;;;;;;5075780;28;20395;-81
2021/10/27 13:39:40;;;;;;;;;;;;;;;;;;5084440;28;19916;-81
2021/10/27 13:42:13;;;;;;;;;;;;;;;;;;5095861;28;20290;-81
2021/10/27 13:45:05;;;;;;;;;;;;;;;;;;5100210;28;19916;-81
2021/10/27 13:58:29;;;;;;;;;;;;;;;;;;5095639;28;20405;-80
2021/10/27 14:09:12;;;;;;;;;;;;;;;;;;5096220;28;19924;-78
2021/10/27 14:11:57;;;;;;;;;;;;;;;;;;5095863;28;19965;-77
2021/10/27 14:17:38;;;;;;;;;;;;;;;;;;5086594;28;19915;-76
2021/10/27 15:20:09;;;;;;;;;;;;;;;;;;5094112;28;20264;-82
2021/10/27 15:23:03;;;;;;;;;;;;;;;;;;5093796;28;19916;-80
2021/10/27 15:27:38;;;;;;;;;;;;;;;;;;5093229;28;20265;-83
2021/10/27 15:28:35;;;;;;;;;;;;;;;;;;5082525;28;20522;-81
2021/10/27 15:34:09;;;;;;;;;;;;;;;;;;5092378;28;19927;-83
2021/10/27 15:36:54;;;;;;;;;;;;;;;;;;5094238;28;19939;-82
2021/10/27 15:42:42;;;;;;;;;;;;;;;;;;5057948;28;19920;-84
2021/10/27 15:50:47;;;;;;;;;;;;;;;;;;5093854;28;20307;-80
2021/10/27 15:53:12;;;;;;;;;;;;;;;;;;5093840;28;19923;-79
2021/10/27 15:55:38;;;;;;;;;;;;;;;;;;5094052;28;19916;-81
2021/10/27 15:58:04;;;;;;;;;;;;;;;;;;5093672;28;20318;-80
2021/10/27 16:00:29;;;;;;;;;;;;;;;;;;5096953;28;20288;-81
2021/10/27 16:02:55;;;;;;;;;;;;;;;;;;5097586;28;19971;-81
2021/10/27 16:05:21;;;;;;;;;;;;;;;;;;5097495;28;19916;-82
2021/10/27 16:07:49;;;;;;;;;;;;;;;;;;5097415;28;20375;-81
2021/10/27 16:10:15;;;;;;;;;;;;;;;;;;5097175;28;19951;-81
2021/10/27 16:12:41;;;;;;;;;;;;;;;;;;5097505;28;19916;-82
2021/10/27 16:15:55;;;;;;;;;;;;;;;;;;5097315;28;19920;-79
2021/10/27 16:17:52;;;;;;;;;;;;;;;;;;5089604;28;19916;-81
2021/10/27 16:20:18;;;;;;;;;;;;;;;;;;5097421;28;19962;-80
2021/10/27 16:22:44;;;;;;;;;;;;;;;;;;5097256;28;19920;-81
2021/10/27 16:25:10;;;;;;;;;;;;;;;;;;5097122;28;19948;-80
2021/10/27 16:27:36;;;;;;;;;;;;;;;;;;5097045;28;19962;-80
2021/10/27 16:30:04;;;;;;;;;;;;;;;;;;5096945;28;19959;-85
2021/10/27 16:32:29;;;;;;;;;;;;;;;;;;5097041;28;19920;-79
2021/10/27 16:34:55;;;;;;;;;;;;;;;;;;5096877;28;19916;-80
2021/10/27 16:37:21;;;;;;;;;;;;;;;;;;5096871;28;19916;-79
2021/10/27 16:39:47;;;;;;;;;;;;;;;;;;5096824;28;19920;-80
2021/10/27 16:42:12;;;;;;;;;;;;;;;;;;5096744;28;19923;-82
2021/10/27 16:44:38;;;;;;;;;;;;;;;;;;5096780;28;19934;-79
2021/10/27 16:47:04;;;;;;;;;;;;;;;;;;5096629;28;20356;-81
2021/10/27 16:49:29;;;;;;;;;;;;;;;;;;5096555;28;20294;-80
2021/10/27 16:51:55;;;;;;;;;;;;;;;;;;5096728;28;20021;-81
2021/10/27 16:54:20;;;;;;;;;;;;;;;;;;5096584;28;19974;-80
2021/10/27 16:56:47;;;;;;;;;;;;;;;;;;5096877;28;20024;-79
2021/10/27 16:59:12;;;;;;;;;;;;;;;;;;5097155;28;19951;-80
2021/10/27 17:01:39;;;;;;;;;;;;;;;;;;5096660;28;19923;-81
2021/10/27 17:04:05;;;;;;;;;;;;;;;;;;5096395;28;19966;-79
2021/10/27 17:06:33;;;;;;;;;;;;;;;;;;5096412;28;19960;-84
2021/10/27 17:08:58;;;;;;;;;;;;;;;;;;5096555;28;20019;-79
2021/10/27 17:11:24;;;;;;;;;;;;;;;;;;5095551;28;19968;-80
2021/10/27 17:13:49;;;;;;;;;;;;;;;;;;5096178;28;19916;-82
2021/10/27 17:16:15;;;;;;;;;;;;;;;;;;5096209;28;19995;-80
2021/10/27 17:18:40;;;;;;;;;;;;;;;;;;5096058;28;19923;-80
2021/10/27 17:21:09;;;;;;;;;;;;;;;;;;5095882;28;19916;-81
2021/10/27 17:23:36;;;;;;;;;;;;;;;;;;5095992;28;19912;-81
2021/10/27 17:26:02;;;;;;;;;;;;;;;;;;5096657;28;19938;-82
2021/10/27 17:28:28;;;;;;;;;;;;;;;;;;5096429;28;20035;-83
2021/10/27 17:30:54;;;;;;;;;;;;;;;;;;5096332;28;19916;-81
2021/10/27 17:33:19;;;;;;;;;;;;;;;;;;5096698;28;20007;-79
2021/10/27 17:35:45;;;;;;;;;;;;;;;;;;5096299;28;19916;-80
2021/10/27 17:38:11;;;;;;;;;;;;;;;;;;5096275;28;19962;-80
2021/10/27 17:40:40;;;;;;;;;;;;;;;;;;5096158;28;20402;-85
2021/10/27 17:43:06;;;;;;;;;;;;;;;;;;5095607;28;19916;-82
2021/10/27 17:45:37;;;;;;;;;;;;;;;;;;5097187;28;19955;-84
2021/10/27 17:48:09;;;;;;;;;;;;;;;;;;5096450;28;20318;-78
2021/10/27 17:58:44;;;;;;;;;;;;;;;;;;5096455;28;19923;-79
2021/10/27 18:01:14;;;;;;;;;;;;;;;;;;5095990;28;20364;-86
2021/10/27 18:03:41;;;;;;;;;;;;;;;;;;5095664;28;19916;-78
2021/10/27 18:06:08;;;;;;;;;;;;;;;;;;5095580;28;19927;-83
2021/10/27 18:08:36;;;;;;;;;;;;;;;;;;5098470;28;19916;-86
2021/10/27 18:11:05;;;;;;;;;;;;;;;;;;5095861;28;19927;-78
2021/10/27 18:13:34;;;;;;;;;;;;;;;;;;5097597;28;20006;-81
2021/10/27 18:16:11;;;;;;;;;;;;;;;;;;5095656;28;19916;-78
2021/10/27 18:18:44;;;;;;;;;;;;;;;;;;5096405;28;19924;-78
2021/10/27 18:21:15;;;;;;;;;;;;;;;;;;5095929;28;20494;-79
2021/10/27 18:26:43;;;;;;;;;;;;;;;;;;5096212;28;19967;-85
2021/10/27 18:39:35;;;;;;;;;;;;;;;;;;5095346;28;19943;-79
2021/10/27 18:42:06;;;;;;;;;;;;;;;;;;5095198;28;19923;-80
2021/10/27 18:44:32;;;;;;;;;;;;;;;;;;5095390;28;19924;-81
2021/10/27 18:47:00;;;;;;;;;;;;;;;;;;5095067;28;20020;-82
2021/10/27 18:49:25;;;;;;;;;;;;;;;;;;5094777;28;19939;-84
2021/10/27 18:52:12;;;;;;;;;;;;;;;;;;5092970;28;19916;-85
2021/10/27 18:54:55;;;;;;;;;;;;;;;;;;5094214;28;19951;-87
2021/10/27 19:15:59;;;;;;;;;;;;;;;;;;5083624;28;20404;-86
2021/10/27 19:18:25;;;;;;;;;;;;;;;;;;5073465;28;20391;-81
2021/10/27 19:20:52;;;;;;;;;;;;;;;;;;5073485;28;19916;-77
2021/10/27 19:23:20;;;;;;;;;;;;;;;;;;5094099;28;19916;-89
2021/10/27 19:26:02;;;;;;;;;;;;;;;;;;5094543;28;19916;-79
2021/10/27 20:10:04;;;;;;;;;;;;;;;;;;5076355;28;19920;-79
2021/10/27 20:13:24;;;;;;;;;;;;;;;;;;5072735;28;20011;-79
2021/10/27 20:18:11;;;;;;;;;;;;;;;;;;5075705;28;19917;-79
2021/10/27 20:55:23;;;;;;;;;;;;;;;;;;5076205;28;19920;-81
2021/10/27 21:00:51;;;;;;;;;;;;;;;;;;5076338;28;20288;-83
2021/10/27 21:03:41;;;;;;;;;;;;;;;;;;5076183;28;20015;-85
2021/10/27 21:14:06;;;;;;;;;;;;;;;;;;5076252;28;20007;-84
2021/10/27 21:16:33;;;;;;;;;;;;;;;;;;5075868;28;20360;-84
2021/10/27 21:18:59;;;;;;;;;;;;;;;;;;5075717;28;19928;-80
2021/10/27 21:21:25;;;;;;;;;;;;;;;;;;5074526;28;19913;-82
2021/10/27 21:23:51;;;;;;;;;;;;;;;;;;5075663;28;19917;-81
2021/10/27 21:26:19;;;;;;;;;;;;;;;;;;5075668;28;20003;-81
2021/10/27 21:31:31;;;;;;;;;;;;;;;;;;5075624;28;19931;-86
2021/10/27 21:44:52;;;;;;;;;;;;;;;;;;5075649;28;19986;-84
2021/10/27 21:47:18;;;;;;;;;;;;;;;;;;5075262;28;20353;-84
2021/10/27 21:49:44;;;;;;;;;;;;;;;;;;5075418;28;19968;-84
2021/10/27 21:52:10;;;;;;;;;;;;;;;;;;5075269;28;20336;-86
2021/10/27 21:54:37;;;;;;;;;;;;;;;;;;5075207;28;19920;-85
2021/10/27 21:57:03;;;;;;;;;;;;;;;;;;5074964;28;19916;-84
2021/10/27 21:59:28;;;;;;;;;;;;;;;;;;5075041;28;19939;-79
2021/10/27 22:01:54;;;;;;;;;;;;;;;;;;5074992;28;19916;-85
2021/10/27 22:04:21;;;;;;;;;;;;;;;;;;5074900;28;19962;-83
2021/10/27 22:06:46;;;;;;;;;;;;;;;;;;5073551;28;19928;-79
2021/10/27 22:09:12;;;;;;;;;;;;;;;;;;5074812;28;19920;-81
2021/10/27 22:11:39;;;;;;;;;;;;;;;;;;5074789;28;20386;-83
2021/10/27 22:14:05;;;;;;;;;;;;;;;;;;5074802;28;19917;-85
2021/10/27 22:16:32;;;;;;;;;;;;;;;;;;5074840;28;19958;-80
2021/10/27 22:18:57;;;;;;;;;;;;;;;;;;5074757;28;19934;-81
2021/10/27 22:21:23;;;;;;;;;;;;;;;;;;5075077;28;20010;-85
2021/10/27 22:23:49;;;;;;;;;;;;;;;;;;5075604;28;19927;-84
2021/10/27 22:26:15;;;;;;;;;;;;;;;;;;5075390;28;20373;-82
2021/10/27 22:28:41;;;;;;;;;;;;;;;;;;5076398;28;19917;-82
2021/10/27 22:31:06;;;;;;;;;;;;;;;;;;5075392;28;19916;-83
2021/10/27 22:33:33;;;;;;;;;;;;;;;;;;5076416;28;20284;-82
2021/10/27 22:35:58;;;;;;;;;;;;;;;;;;5080039;28;19924;-82
2021/10/27 22:38:24;;;;;;;;;;;;;;;;;;5074873;28;19920;-82
2021/10/27 22:40:50;;;;;;;;;;;;;;;;;;5074748;28;19917;-87
2021/10/27 22:43:17;;;;;;;;;;;;;;;;;;5074400;28;19916;-82
2021/10/27 22:45:43;;;;;;;;;;;;;;;;;;5074260;28;19917;-83
2021/10/27 22:48:09;;;;;;;;;;;;;;;;;;5074084;28;19916;-85
2021/10/27 22:50:35;;;;;;;;;;;;;;;;;;5074019;28;19920;-81
2021/10/27 22:53:01;;;;;;;;;;;;;;;;;;5074054;28;19912;-84
2021/10/27 22:55:27;;;;;;;;;;;;;;;;;;5073979;28;19928;-83
2021/10/27 22:57:52;;;;;;;;;;;;;;;;;;5073943;28;20426;-84
2021/10/27 23:00:24;;;;;;;;;;;;;;;;;;5073809;28;20007;-85
2021/10/27 23:07:46;;;;;;;;;;;;;;;;;;5073585;28;19964;-83
2021/10/27 23:10:33;;;;;;;;;;;;;;;;;;5073453;28;19939;-84
2021/10/27 23:40:24;;;;;;;;;;;;;;;;;;5073749;28;20414;-80
2021/10/27 23:42:53;;;;;;;;;;;;;;;;;;5073313;28;19962;-80
2021/10/27 23:45:19;;;;;;;;;;;;;;;;;;5073555;28;19920;-80
